KRCZ

Richmond County Airport

Rockingham, North Carolina, USA
METAR KRCZ 162220Z AUTO 00000KT 10SM CLR 12/01 A3018 RMK AO2 T01150010
Observed Flight Rules
Jan-16 @ 22:20 UTC (16 minutes ago) Visual Flight Rules
Visibility Clouds
10 miles
  • Clear skies
Temperatures Readings
Current 12°C / 54°F
Dewpoint 1°C / 34°F
Humidity 47%
Altimeter 30.18" Hg
Pressure 1022.02 hPa
Elevation 109
METAR KRCZ 162220Z AUTO 00000KT 10SM CLR 12/01 A3018 RMK AO2 T01150010
Observed Flight Rules
Jan-16 @ 22:20 UTC
(16 minutes ago)
VFR
Clouds
  • Clear skies
Temperature Dewpoint
12°C / 54°F 1°C / 34°F
Humidity Altimeter Pressure
47% 30.18" Hg 1022.02 hPa